sensor_id;sensor_type;location;lat;lon;timestamp;P1;durP1;ratioP1;P2;durP2;ratioP2
17937;SDS011;16051;53.024;8.630;2022-08-03T00:02:52;5.30;;;3.97;;
17937;SDS011;16051;53.024;8.630;2022-08-03T00:06:54;3.83;;;3.53;;
17937;SDS011;16051;53.024;8.630;2022-08-03T00:10:58;4.67;;;4.27;;
17937;SDS011;16051;53.024;8.630;2022-08-03T00:15:01;3.80;;;3.60;;
17937;SDS011;16051;53.024;8.630;2022-08-03T00:19:03;3.53;;;3.33;;
17937;SDS011;16051;53.024;8.630;2022-08-03T00:23:06;3.90;;;3.70;;
17937;SDS011;16051;53.024;8.630;2022-08-03T00:27:09;4.37;;;4.07;;
17937;SDS011;16051;53.024;8.630;2022-08-03T00:31:11;4.50;;;4.20;;
17937;SDS011;16051;53.024;8.630;2022-08-03T00:35:13;3.93;;;3.63;;
17937;SDS011;16051;53.024;8.630;2022-08-03T00:39:15;3.90;;;3.70;;
17937;SDS011;16051;53.024;8.630;2022-08-03T00:43:23;4.50;;;4.20;;
17937;SDS011;16051;53.024;8.630;2022-08-03T00:47:26;4.87;;;4.40;;
17937;SDS011;16051;53.024;8.630;2022-08-03T00:51:28;4.20;;;3.90;;
17937;SDS011;16051;53.024;8.630;2022-08-03T00:55:30;4.53;;;4.23;;
17937;SDS011;16051;53.024;8.630;2022-08-03T00:59:34;4.50;;;4.20;;
17937;SDS011;16051;53.024;8.630;2022-08-03T01:03:38;5.10;;;4.70;;
17937;SDS011;16051;53.024;8.630;2022-08-03T01:07:43;4.27;;;3.97;;
17937;SDS011;16051;53.024;8.630;2022-08-03T01:12:10;4.27;;;3.97;;
17937;SDS011;16051;53.024;8.630;2022-08-03T01:16:24;4.00;;;3.80;;
17937;SDS011;16051;53.024;8.630;2022-08-03T01:20:32;3.90;;;3.60;;
17937;SDS011;16051;53.024;8.630;2022-08-03T01:24:42;4.10;;;3.80;;
17937;SDS011;16051;53.024;8.630;2022-08-03T01:33:58;4.07;;;3.77;;
17937;SDS011;16051;53.024;8.630;2022-08-03T01:38:06;4.10;;;3.80;;
17937;SDS011;16051;53.024;8.630;2022-08-03T01:42:12;4.50;;;4.10;;
17937;SDS011;16051;53.024;8.630;2022-08-03T01:46:17;4.53;;;4.13;;
17937;SDS011;16051;53.024;8.630;2022-08-03T01:50:25;3.90;;;3.60;;
17937;SDS011;16051;53.024;8.630;2022-08-03T01:54:31;4.00;;;3.70;;
17937;SDS011;16051;53.024;8.630;2022-08-03T01:58:40;4.63;;;4.20;;
17937;SDS011;16051;53.024;8.630;2022-08-03T02:02:45;4.10;;;3.80;;
17937;SDS011;16051;53.024;8.630;2022-08-03T02:06:51;3.93;;;3.60;;
17937;SDS011;16051;53.024;8.630;2022-08-03T02:10:55;4.07;;;3.77;;
17937;SDS011;16051;53.024;8.630;2022-08-03T02:14:59;4.13;;;3.80;;
17937;SDS011;16051;53.024;8.630;2022-08-03T02:19:04;3.87;;;3.63;;
17937;SDS011;16051;53.024;8.630;2022-08-03T02:23:09;3.90;;;3.60;;
17937;SDS011;16051;53.024;8.630;2022-08-03T02:31:51;4.20;;;3.90;;
17937;SDS011;16051;53.024;8.630;2022-08-03T02:35:59;3.90;;;3.60;;
17937;SDS011;16051;53.024;8.630;2022-08-03T02:40:05;4.30;;;3.90;;
17937;SDS011;16051;53.024;8.630;2022-08-03T02:44:11;4.17;;;3.87;;
17937;SDS011;16051;53.024;8.630;2022-08-03T02:48:15;4.00;;;3.70;;
17937;SDS011;16051;53.024;8.630;2022-08-03T02:52:22;4.00;;;3.70;;
17937;SDS011;16051;53.024;8.630;2022-08-03T02:56:29;4.40;;;3.90;;
17937;SDS011;16051;53.024;8.630;2022-08-03T03:00:34;4.00;;;3.70;;
17937;SDS011;16051;53.024;8.630;2022-08-03T03:04:37;4.03;;;3.60;;
17937;SDS011;16051;53.024;8.630;2022-08-03T03:08:40;4.77;;;4.37;;
17937;SDS011;16051;53.024;8.630;2022-08-03T03:12:45;4.13;;;3.83;;
17937;SDS011;16051;53.024;8.630;2022-08-03T03:16:59;4.50;;;4.10;;
17937;SDS011;16051;53.024;8.630;2022-08-03T03:21:03;4.23;;;3.93;;
17937;SDS011;16051;53.024;8.630;2022-08-03T03:25:08;4.17;;;3.87;;
17937;SDS011;16051;53.024;8.630;2022-08-03T03:29:12;4.50;;;4.10;;
17937;SDS011;16051;53.024;8.630;2022-08-03T03:33:16;3.83;;;3.53;;
17937;SDS011;16051;53.024;8.630;2022-08-03T03:37:18;4.07;;;3.77;;
17937;SDS011;16051;53.024;8.630;2022-08-03T03:41:27;4.00;;;3.70;;
17937;SDS011;16051;53.024;8.630;2022-08-03T03:45:30;4.33;;;3.93;;
17937;SDS011;16051;53.024;8.630;2022-08-03T03:49:35;4.10;;;3.80;;
17937;SDS011;16051;53.024;8.630;2022-08-03T03:53:38;4.57;;;4.17;;
17937;SDS011;16051;53.024;8.630;2022-08-03T03:57:40;4.87;;;4.47;;
17937;SDS011;16051;53.024;8.630;2022-08-03T04:01:43;4.30;;;4.00;;
17937;SDS011;16051;53.024;8.630;2022-08-03T04:05:46;4.10;;;3.70;;
17937;SDS011;16051;53.024;8.630;2022-08-03T04:10:07;4.30;;;3.90;;
17937;SDS011;16051;53.024;8.630;2022-08-03T04:14:34;4.23;;;3.80;;
17937;SDS011;16051;53.024;8.630;2022-08-03T04:18:40;4.77;;;4.30;;
17937;SDS011;16051;53.024;8.630;2022-08-03T04:22:48;5.23;;;4.67;;
17937;SDS011;16051;53.024;8.630;2022-08-03T04:26:53;4.77;;;4.10;;
17937;SDS011;16051;53.024;8.630;2022-08-03T04:30:58;5.00;;;4.57;;
17937;SDS011;16051;53.024;8.630;2022-08-03T04:35:05;6.00;;;4.73;;
17937;SDS011;16051;53.024;8.630;2022-08-03T04:39:09;4.53;;;4.13;;
17937;SDS011;16051;53.024;8.630;2022-08-03T04:43:16;5.40;;;4.90;;
17937;SDS011;16051;53.024;8.630;2022-08-03T04:47:21;4.17;;;3.77;;
17937;SDS011;16051;53.024;8.630;2022-08-03T04:51:25;6.13;;;4.50;;
17937;SDS011;16051;53.024;8.630;2022-08-03T04:55:28;7.07;;;4.70;;
17937;SDS011;16051;53.024;8.630;2022-08-03T04:59:42;4.30;;;3.90;;
17937;SDS011;16051;53.024;8.630;2022-08-03T05:03:44;4.70;;;4.10;;
17937;SDS011;16051;53.024;8.630;2022-08-03T05:07:48;4.53;;;4.13;;
17937;SDS011;16051;53.024;8.630;2022-08-03T05:11:50;5.20;;;4.27;;
17937;SDS011;16051;53.024;8.630;2022-08-03T05:15:52;5.10;;;4.60;;
17937;SDS011;16051;53.024;8.630;2022-08-03T05:19:54;4.17;;;3.77;;
17937;SDS011;16051;53.024;8.630;2022-08-03T05:23:58;5.53;;;4.47;;
17937;SDS011;16051;53.024;8.630;2022-08-03T05:28:00;7.67;;;5.00;;
17937;SDS011;16051;53.024;8.630;2022-08-03T05:32:09;5.73;;;5.03;;
17937;SDS011;16051;53.024;8.630;2022-08-03T05:36:11;6.17;;;5.03;;
17937;SDS011;16051;53.024;8.630;2022-08-03T05:40:15;6.27;;;5.50;;
17937;SDS011;16051;53.024;8.630;2022-08-03T05:44:17;5.53;;;5.03;;
17937;SDS011;16051;53.024;8.630;2022-08-03T05:48:19;6.27;;;5.67;;
17937;SDS011;16051;53.024;8.630;2022-08-03T05:52:21;5.90;;;5.30;;
17937;SDS011;16051;53.024;8.630;2022-08-03T05:56:25;6.43;;;5.27;;
17937;SDS011;16051;53.024;8.630;2022-08-03T06:00:27;6.67;;;5.70;;
17937;SDS011;16051;53.024;8.630;2022-08-03T06:04:29;6.43;;;5.37;;
17937;SDS011;16051;53.024;8.630;2022-08-03T06:08:31;5.93;;;5.40;;
17937;SDS011;16051;53.024;8.630;2022-08-03T06:12:35;7.13;;;5.90;;
17937;SDS011;16051;53.024;8.630;2022-08-03T06:16:40;6.07;;;5.47;;
17937;SDS011;16051;53.024;8.630;2022-08-03T06:20:42;7.73;;;5.73;;
17937;SDS011;16051;53.024;8.630;2022-08-03T06:24:44;6.13;;;5.53;;
17937;SDS011;16051;53.024;8.630;2022-08-03T06:28:48;7.90;;;5.30;;
17937;SDS011;16051;53.024;8.630;2022-08-03T06:32:50;5.30;;;4.77;;
17937;SDS011;16051;53.024;8.630;2022-08-03T06:36:52;7.23;;;5.20;;
17937;SDS011;16051;53.024;8.630;2022-08-03T06:40:54;6.87;;;4.77;;
17937;SDS011;16051;53.024;8.630;2022-08-03T06:44:58;7.73;;;4.80;;
17937;SDS011;16051;53.024;8.630;2022-08-03T06:49:02;6.40;;;4.83;;
17937;SDS011;16051;53.024;8.630;2022-08-03T06:53:13;6.47;;;4.40;;
17937;SDS011;16051;53.024;8.630;2022-08-03T06:57:15;7.53;;;4.53;;
17937;SDS011;16051;53.024;8.630;2022-08-03T07:01:20;5.97;;;4.07;;
17937;SDS011;16051;53.024;8.630;2022-08-03T07:05:22;3.77;;;3.40;;
17937;SDS011;16051;53.024;8.630;2022-08-03T07:09:25;5.57;;;3.53;;
17937;SDS011;16051;53.024;8.630;2022-08-03T07:13:27;5.37;;;3.43;;
17937;SDS011;16051;53.024;8.630;2022-08-03T07:17:31;8.43;;;4.07;;
17937;SDS011;16051;53.024;8.630;2022-08-03T07:21:42;6.50;;;4.00;;
17937;SDS011;16051;53.024;8.630;2022-08-03T07:25:44;6.70;;;3.43;;
17937;SDS011;16051;53.024;8.630;2022-08-03T07:29:47;5.73;;;3.60;;
17937;SDS011;16051;53.024;8.630;2022-08-03T07:33:50;4.73;;;3.00;;
17937;SDS011;16051;53.024;8.630;2022-08-03T07:38:03;8.97;;;4.10;;
17937;SDS011;16051;53.024;8.630;2022-08-03T07:42:05;8.70;;;3.87;;
17937;SDS011;16051;53.024;8.630;2022-08-03T07:46:07;5.27;;;3.70;;
17937;SDS011;16051;53.024;8.630;2022-08-03T07:50:11;7.23;;;3.93;;
17937;SDS011;16051;53.024;8.630;2022-08-03T07:54:13;4.10;;;3.23;;
17937;SDS011;16051;53.024;8.630;2022-08-03T07:58:15;5.77;;;3.53;;
17937;SDS011;16051;53.024;8.630;2022-08-03T08:02:31;6.30;;;3.60;;
17937;SDS011;16051;53.024;8.630;2022-08-03T08:06:34;3.87;;;3.40;;
17937;SDS011;16051;53.024;8.630;2022-08-03T08:10:37;5.77;;;3.40;;
17937;SDS011;16051;53.024;8.630;2022-08-03T08:14:40;4.47;;;2.90;;
17937;SDS011;16051;53.024;8.630;2022-08-03T08:23:09;4.87;;;2.90;;
17937;SDS011;16051;53.024;8.630;2022-08-03T08:27:12;8.63;;;3.37;;
17937;SDS011;16051;53.024;8.630;2022-08-03T08:31:14;5.43;;;2.97;;
17937;SDS011;16051;53.024;8.630;2022-08-03T08:35:16;6.07;;;2.90;;
17937;SDS011;16051;53.024;8.630;2022-08-03T08:39:20;4.33;;;2.70;;
17937;SDS011;16051;53.024;8.630;2022-08-03T08:43:23;6.00;;;2.73;;
17937;SDS011;16051;53.024;8.630;2022-08-03T08:47:30;3.70;;;2.40;;
17937;SDS011;16051;53.024;8.630;2022-08-03T08:51:33;4.47;;;2.37;;
17937;SDS011;16051;53.024;8.630;2022-08-03T08:55:38;3.83;;;2.37;;
17937;SDS011;16051;53.024;8.630;2022-08-03T08:59:40;10.27;;;2.40;;
17937;SDS011;16051;53.024;8.630;2022-08-03T09:07:57;5.20;;;2.47;;
17937;SDS011;16051;53.024;8.630;2022-08-03T09:12:01;5.33;;;2.10;;
17937;SDS011;16051;53.024;8.630;2022-08-03T09:16:07;3.25;;;2.00;;
17937;SDS011;16051;53.024;8.630;2022-08-03T09:20:15;4.07;;;2.10;;
17937;SDS011;16051;53.024;8.630;2022-08-03T09:24:20;2.43;;;1.80;;
17937;SDS011;16051;53.024;8.630;2022-08-03T09:28:24;7.68;;;2.03;;
17937;SDS011;16051;53.024;8.630;2022-08-03T09:36:47;4.57;;;1.60;;
17937;SDS011;16051;53.024;8.630;2022-08-03T09:40:53;4.43;;;1.77;;
17937;SDS011;16051;53.024;8.630;2022-08-03T09:44:57;5.75;;;2.25;;
17937;SDS011;16051;53.024;8.630;2022-08-03T09:49:09;3.38;;;1.67;;
17937;SDS011;16051;53.024;8.630;2022-08-03T09:53:12;5.28;;;2.15;;
17937;SDS011;16051;53.024;8.630;2022-08-03T09:57:21;3.42;;;2.10;;
17937;SDS011;16051;53.024;8.630;2022-08-03T10:01:31;6.63;;;2.20;;
17937;SDS011;16051;53.024;8.630;2022-08-03T10:05:36;2.70;;;1.90;;
17937;SDS011;16051;53.024;8.630;2022-08-03T10:09:51;2.83;;;1.75;;
17937;SDS011;16051;53.024;8.630;2022-08-03T10:13:55;4.20;;;1.85;;
17937;SDS011;16051;53.024;8.630;2022-08-03T10:17:59;2.15;;;1.88;;
17937;SDS011;16051;53.024;8.630;2022-08-03T10:22:03;5.43;;;2.20;;
17937;SDS011;16051;53.024;8.630;2022-08-03T10:26:13;7.65;;;2.30;;
17937;SDS011;16051;53.024;8.630;2022-08-03T10:30:22;6.78;;;2.67;;
17937;SDS011;16051;53.024;8.630;2022-08-03T10:34:32;4.82;;;2.47;;
17937;SDS011;16051;53.024;8.630;2022-08-03T10:38:42;4.35;;;2.35;;
17937;SDS011;16051;53.024;8.630;2022-08-03T10:42:53;5.40;;;2.17;;
17937;SDS011;16051;53.024;8.630;2022-08-03T10:46:59;6.80;;;3.03;;
17937;SDS011;16051;53.024;8.630;2022-08-03T10:51:03;5.60;;;2.60;;
17937;SDS011;16051;53.024;8.630;2022-08-03T10:59:58;4.00;;;2.22;;
17937;SDS011;16051;53.024;8.630;2022-08-03T11:04:13;6.40;;;2.50;;
17937;SDS011;16051;53.024;8.630;2022-08-03T11:08:23;4.82;;;2.40;;
17937;SDS011;16051;53.024;8.630;2022-08-03T11:12:32;3.95;;;1.88;;
17937;SDS011;16051;53.024;8.630;2022-08-03T11:16:35;4.28;;;1.90;;
17937;SDS011;16051;53.024;8.630;2022-08-03T11:20:43;6.07;;;2.10;;
17937;SDS011;16051;53.024;8.630;2022-08-03T11:24:58;5.40;;;2.08;;
17937;SDS011;16051;53.024;8.630;2022-08-03T11:33:29;5.53;;;2.38;;
17937;SDS011;16051;53.024;8.630;2022-08-03T11:37:32;3.90;;;1.83;;
17937;SDS011;16051;53.024;8.630;2022-08-03T11:41:44;6.50;;;1.88;;
17937;SDS011;16051;53.024;8.630;2022-08-03T11:45:55;3.53;;;1.60;;
17937;SDS011;16051;53.024;8.630;2022-08-03T11:49:59;5.47;;;1.80;;
17937;SDS011;16051;53.024;8.630;2022-08-03T11:54:02;6.03;;;1.90;;
17937;SDS011;16051;53.024;8.630;2022-08-03T11:58:07;2.95;;;1.88;;
17937;SDS011;16051;53.024;8.630;2022-08-03T12:02:16;5.18;;;1.95;;
17937;SDS011;16051;53.024;8.630;2022-08-03T12:06:18;5.20;;;2.00;;
17937;SDS011;16051;53.024;8.630;2022-08-03T12:10:21;7.30;;;2.20;;
17937;SDS011;16051;53.024;8.630;2022-08-03T12:14:26;1.65;;;1.40;;
17937;SDS011;16051;53.024;8.630;2022-08-03T12:18:30;5.47;;;2.42;;
17937;SDS011;16051;53.024;8.630;2022-08-03T12:22:33;3.83;;;2.40;;
17937;SDS011;16051;53.024;8.630;2022-08-03T12:26:42;2.20;;;2.05;;
17937;SDS011;16051;53.024;8.630;2022-08-03T12:30:48;3.22;;;2.25;;
17937;SDS011;16051;53.024;8.630;2022-08-03T12:34:53;9.32;;;8.68;;
17937;SDS011;16051;53.024;8.630;2022-08-03T12:39:02;3.05;;;2.35;;
17937;SDS011;16051;53.024;8.630;2022-08-03T12:43:19;6.30;;;1.67;;
17937;SDS011;16051;53.024;8.630;2022-08-03T12:47:22;6.40;;;1.92;;
17937;SDS011;16051;53.024;8.630;2022-08-03T12:51:54;4.07;;;1.48;;
17937;SDS011;16051;53.024;8.630;2022-08-03T12:56:00;2.63;;;1.60;;
17937;SDS011;16051;53.024;8.630;2022-08-03T13:00:09;4.90;;;1.45;;
17937;SDS011;16051;53.024;8.630;2022-08-03T13:04:14;7.40;;;2.03;;
17937;SDS011;16051;53.024;8.630;2022-08-03T13:08:26;5.72;;;2.05;;
17937;SDS011;16051;53.024;8.630;2022-08-03T13:16:53;3.08;;;1.80;;
17937;SDS011;16051;53.024;8.630;2022-08-03T13:20:56;3.80;;;1.65;;
17937;SDS011;16051;53.024;8.630;2022-08-03T13:24:58;4.68;;;1.95;;
17937;SDS011;16051;53.024;8.630;2022-08-03T13:29:02;3.97;;;1.98;;
17937;SDS011;16051;53.024;8.630;2022-08-03T13:33:04;6.43;;;2.28;;
17937;SDS011;16051;53.024;8.630;2022-08-03T13:37:07;4.32;;;1.92;;
17937;SDS011;16051;53.024;8.630;2022-08-03T13:41:11;7.80;;;2.35;;
17937;SDS011;16051;53.024;8.630;2022-08-03T13:45:13;6.10;;;1.98;;
17937;SDS011;16051;53.024;8.630;2022-08-03T13:49:15;3.35;;;1.80;;
17937;SDS011;16051;53.024;8.630;2022-08-03T13:53:25;6.10;;;2.00;;
17937;SDS011;16051;53.024;8.630;2022-08-03T13:57:28;3.70;;;1.80;;
17937;SDS011;16051;53.024;8.630;2022-08-03T14:01:30;4.75;;;1.75;;
17937;SDS011;16051;53.024;8.630;2022-08-03T14:05:33;5.65;;;2.20;;
17937;SDS011;16051;53.024;8.630;2022-08-03T14:09:38;5.82;;;2.08;;
17937;SDS011;16051;53.024;8.630;2022-08-03T14:13:40;5.28;;;1.90;;
17937;SDS011;16051;53.024;8.630;2022-08-03T14:17:43;5.90;;;1.80;;
17937;SDS011;16051;53.024;8.630;2022-08-03T14:21:45;4.88;;;1.90;;
17937;SDS011;16051;53.024;8.630;2022-08-03T14:25:49;4.30;;;1.98;;
17937;SDS011;16051;53.024;8.630;2022-08-03T14:29:51;5.90;;;1.65;;
17937;SDS011;16051;53.024;8.630;2022-08-03T14:33:55;5.40;;;1.65;;
17937;SDS011;16051;53.024;8.630;2022-08-03T14:37:57;4.03;;;1.90;;
17937;SDS011;16051;53.024;8.630;2022-08-03T14:42:01;5.82;;;2.20;;
17937;SDS011;16051;53.024;8.630;2022-08-03T14:46:03;5.75;;;2.25;;
17937;SDS011;16051;53.024;8.630;2022-08-03T14:50:16;5.25;;;1.90;;
17937;SDS011;16051;53.024;8.630;2022-08-03T14:54:18;4.30;;;1.98;;
17937;SDS011;16051;53.024;8.630;2022-08-03T14:58:22;3.97;;;1.85;;
17937;SDS011;16051;53.024;8.630;2022-08-03T15:02:35;7.65;;;2.00;;
17937;SDS011;16051;53.024;8.630;2022-08-03T15:06:37;6.35;;;2.17;;
17937;SDS011;16051;53.024;8.630;2022-08-03T15:10:40;6.78;;;1.83;;
17937;SDS011;16051;53.024;8.630;2022-08-03T15:14:47;6.32;;;2.10;;
17937;SDS011;16051;53.024;8.630;2022-08-03T15:18:49;6.63;;;1.92;;
17937;SDS011;16051;53.024;8.630;2022-08-03T15:22:51;8.93;;;2.10;;
17937;SDS011;16051;53.024;8.630;2022-08-03T15:26:53;7.22;;;1.83;;
17937;SDS011;16051;53.024;8.630;2022-08-03T15:31:09;7.15;;;1.60;;
17937;SDS011;16051;53.024;8.630;2022-08-03T15:35:11;4.60;;;1.90;;
17937;SDS011;16051;53.024;8.630;2022-08-03T15:39:13;6.47;;;2.10;;
17937;SDS011;16051;53.024;8.630;2022-08-03T15:43:15;4.20;;;1.70;;
17937;SDS011;16051;53.024;8.630;2022-08-03T15:47:19;3.88;;;1.85;;
17937;SDS011;16051;53.024;8.630;2022-08-03T15:55:43;4.78;;;2.20;;
17937;SDS011;16051;53.024;8.630;2022-08-03T15:59:45;7.45;;;2.00;;
17937;SDS011;16051;53.024;8.630;2022-08-03T16:03:49;3.35;;;1.77;;
17937;SDS011;16051;53.024;8.630;2022-08-03T16:08:09;3.03;;;1.63;;
17937;SDS011;16051;53.024;8.630;2022-08-03T16:12:11;6.30;;;1.90;;
17937;SDS011;16051;53.024;8.630;2022-08-03T16:16:14;4.75;;;1.67;;
17937;SDS011;16051;53.024;8.630;2022-08-03T16:20:17;7.55;;;1.88;;
17937;SDS011;16051;53.024;8.630;2022-08-03T16:28:32;7.93;;;2.13;;
17937;SDS011;16051;53.024;8.630;2022-08-03T16:32:37;7.22;;;1.92;;
17937;SDS011;16051;53.024;8.630;2022-08-03T16:36:40;5.63;;;2.05;;
17937;SDS011;16051;53.024;8.630;2022-08-03T16:40:42;7.88;;;2.00;;
17937;SDS011;16051;53.024;8.630;2022-08-03T16:44:46;4.45;;;1.58;;
17937;SDS011;16051;53.024;8.630;2022-08-03T16:48:48;4.15;;;1.88;;
17937;SDS011;16051;53.024;8.630;2022-08-03T16:52:51;5.47;;;2.03;;
17937;SDS011;16051;53.024;8.630;2022-08-03T16:56:54;7.15;;;1.60;;
17937;SDS011;16051;53.024;8.630;2022-08-03T17:00:56;3.42;;;1.67;;
17937;SDS011;16051;53.024;8.630;2022-08-03T17:04:58;8.32;;;2.13;;
17937;SDS011;16051;53.024;8.630;2022-08-03T17:09:03;6.35;;;2.03;;
17937;SDS011;16051;53.024;8.630;2022-08-03T17:13:06;5.53;;;2.10;;
17937;SDS011;16051;53.024;8.630;2022-08-03T17:17:12;3.55;;;1.50;;
17937;SDS011;16051;53.024;8.630;2022-08-03T17:21:18;7.90;;;2.15;;
17937;SDS011;16051;53.024;8.630;2022-08-03T17:25:28;4.65;;;1.98;;
17937;SDS011;16051;53.024;8.630;2022-08-03T17:29:45;5.22;;;2.00;;
17937;SDS011;16051;53.024;8.630;2022-08-03T17:33:50;6.40;;;1.75;;
17937;SDS011;16051;53.024;8.630;2022-08-03T17:37:53;9.68;;;2.05;;
17937;SDS011;16051;53.024;8.630;2022-08-03T17:41:56;5.30;;;2.22;;
17937;SDS011;16051;53.024;8.630;2022-08-03T17:46:01;4.88;;;2.20;;
17937;SDS011;16051;53.024;8.630;2022-08-03T17:50:05;6.55;;;2.53;;
17937;SDS011;16051;53.024;8.630;2022-08-03T17:54:09;5.03;;;2.45;;
17937;SDS011;16051;53.024;8.630;2022-08-03T17:58:20;4.45;;;2.20;;
17937;SDS011;16051;53.024;8.630;2022-08-03T18:02:32;7.00;;;2.85;;
17937;SDS011;16051;53.024;8.630;2022-08-03T18:07:07;5.15;;;2.47;;
17937;SDS011;16051;53.024;8.630;2022-08-03T18:11:12;5.80;;;2.92;;
17937;SDS011;16051;53.024;8.630;2022-08-03T18:15:23;5.18;;;2.88;;
17937;SDS011;16051;53.024;8.630;2022-08-03T18:19:32;4.95;;;2.53;;
17937;SDS011;16051;53.024;8.630;2022-08-03T18:23:36;8.55;;;3.00;;
17937;SDS011;16051;53.024;8.630;2022-08-03T18:27:39;4.28;;;2.80;;
17937;SDS011;16051;53.024;8.630;2022-08-03T18:31:43;4.47;;;3.00;;
17937;SDS011;16051;53.024;8.630;2022-08-03T18:36:01;7.90;;;4.20;;
17937;SDS011;16051;53.024;8.630;2022-08-03T18:40:05;8.60;;;3.63;;
17937;SDS011;16051;53.024;8.630;2022-08-03T18:44:08;9.77;;;3.72;;
17937;SDS011;16051;53.024;8.630;2022-08-03T18:48:13;7.30;;;3.03;;
17937;SDS011;16051;53.024;8.630;2022-08-03T18:52:30;10.45;;;3.97;;
17937;SDS011;16051;53.024;8.630;2022-08-03T19:01:03;8.48;;;4.53;;
17937;SDS011;16051;53.024;8.630;2022-08-03T19:05:18;8.25;;;3.90;;
17937;SDS011;16051;53.024;8.630;2022-08-03T19:09:23;8.20;;;4.60;;
17937;SDS011;16051;53.024;8.630;2022-08-03T19:13:34;12.13;;;5.03;;
17937;SDS011;16051;53.024;8.630;2022-08-03T19:17:46;17.88;;;6.50;;
17937;SDS011;16051;53.024;8.630;2022-08-03T19:21:52;18.15;;;5.53;;
17937;SDS011;16051;53.024;8.630;2022-08-03T19:25:55;20.67;;;6.97;;
17937;SDS011;16051;53.024;8.630;2022-08-03T19:30:01;17.02;;;6.20;;
17937;SDS011;16051;53.024;8.630;2022-08-03T19:34:07;11.50;;;5.18;;
17937;SDS011;16051;53.024;8.630;2022-08-03T19:38:13;15.40;;;7.23;;
17937;SDS011;16051;53.024;8.630;2022-08-03T19:42:19;14.15;;;7.07;;
17937;SDS011;16051;53.024;8.630;2022-08-03T19:51:01;17.60;;;7.30;;
17937;SDS011;16051;53.024;8.630;2022-08-03T19:55:07;20.88;;;7.70;;
17937;SDS011;16051;53.024;8.630;2022-08-03T19:59:11;12.03;;;6.20;;
17937;SDS011;16051;53.024;8.630;2022-08-03T20:03:15;15.90;;;6.67;;
17937;SDS011;16051;53.024;8.630;2022-08-03T20:07:18;14.40;;;6.87;;
17937;SDS011;16051;53.024;8.630;2022-08-03T20:11:21;21.77;;;6.57;;
17937;SDS011;16051;53.024;8.630;2022-08-03T20:15:27;15.13;;;6.67;;
17937;SDS011;16051;53.024;8.630;2022-08-03T20:19:29;12.60;;;5.90;;
17937;SDS011;16051;53.024;8.630;2022-08-03T20:23:32;15.77;;;6.70;;
17937;SDS011;16051;53.024;8.630;2022-08-03T20:27:44;15.10;;;5.77;;
17937;SDS011;16051;53.024;8.630;2022-08-03T20:31:47;15.40;;;5.83;;
17937;SDS011;16051;53.024;8.630;2022-08-03T20:35:49;13.50;;;6.40;;
17937;SDS011;16051;53.024;8.630;2022-08-03T20:39:51;18.80;;;7.13;;
17937;SDS011;16051;53.024;8.630;2022-08-03T20:43:55;14.50;;;6.30;;
17937;SDS011;16051;53.024;8.630;2022-08-03T20:48:00;17.87;;;6.60;;
17937;SDS011;16051;53.024;8.630;2022-08-03T20:52:04;10.23;;;5.80;;
17937;SDS011;16051;53.024;8.630;2022-08-03T20:56:07;11.67;;;5.93;;
17937;SDS011;16051;53.024;8.630;2022-08-03T21:00:23;10.07;;;5.40;;
17937;SDS011;16051;53.024;8.630;2022-08-03T21:04:25;12.33;;;5.40;;
17937;SDS011;16051;53.024;8.630;2022-08-03T21:08:28;7.33;;;4.57;;
17937;SDS011;16051;53.024;8.630;2022-08-03T21:12:34;10.17;;;5.37;;
17937;SDS011;16051;53.024;8.630;2022-08-03T21:16:50;12.57;;;6.43;;
17937;SDS011;16051;53.024;8.630;2022-08-03T21:20:55;9.90;;;4.80;;
17937;SDS011;16051;53.024;8.630;2022-08-03T21:25:01;7.57;;;4.57;;
17937;SDS011;16051;53.024;8.630;2022-08-03T21:29:09;8.07;;;4.80;;
17937;SDS011;16051;53.024;8.630;2022-08-03T21:33:15;11.73;;;4.83;;
17937;SDS011;16051;53.024;8.630;2022-08-03T21:37:17;8.30;;;5.70;;
17937;SDS011;16051;53.024;8.630;2022-08-03T21:45:57;13.03;;;5.70;;
17937;SDS011;16051;53.024;8.630;2022-08-03T21:50:04;11.07;;;6.30;;
17937;SDS011;16051;53.024;8.630;2022-08-03T21:54:09;9.80;;;5.60;;
17937;SDS011;16051;53.024;8.630;2022-08-03T21:58:13;6.57;;;5.03;;
17937;SDS011;16051;53.024;8.630;2022-08-03T22:02:26;10.60;;;5.70;;
17937;SDS011;16051;53.024;8.630;2022-08-03T22:06:37;8.50;;;5.37;;
17937;SDS011;16051;53.024;8.630;2022-08-03T22:10:43;12.23;;;6.10;;
17937;SDS011;16051;53.024;8.630;2022-08-03T22:14:48;7.10;;;5.10;;
17937;SDS011;16051;53.024;8.630;2022-08-03T22:18:51;15.77;;;7.77;;
17937;SDS011;16051;53.024;8.630;2022-08-03T22:22:55;10.10;;;6.43;;
17937;SDS011;16051;53.024;8.630;2022-08-03T22:27:04;7.97;;;5.80;;
17937;SDS011;16051;53.024;8.630;2022-08-03T22:31:35;10.70;;;6.47;;
17937;SDS011;16051;53.024;8.630;2022-08-03T22:35:38;9.93;;;5.97;;
17937;SDS011;16051;53.024;8.630;2022-08-03T22:39:45;6.93;;;5.73;;
17937;SDS011;16051;53.024;8.630;2022-08-03T22:43:47;11.50;;;6.43;;
17937;SDS011;16051;53.024;8.630;2022-08-03T22:47:50;10.07;;;6.20;;
17937;SDS011;16051;53.024;8.630;2022-08-03T22:51:55;7.87;;;5.40;;
17937;SDS011;16051;53.024;8.630;2022-08-03T22:56:01;9.57;;;7.37;;
17937;SDS011;16051;53.024;8.630;2022-08-03T23:00:06;9.47;;;6.13;;
17937;SDS011;16051;53.024;8.630;2022-08-03T23:08:42;10.07;;;7.40;;
17937;SDS011;16051;53.024;8.630;2022-08-03T23:12:48;9.83;;;7.27;;
17937;SDS011;16051;53.024;8.630;2022-08-03T23:16:52;14.87;;;8.37;;
17937;SDS011;16051;53.024;8.630;2022-08-03T23:20:57;13.27;;;8.70;;
17937;SDS011;16051;53.024;8.630;2022-08-03T23:25:20;9.13;;;7.53;;
17937;SDS011;16051;53.024;8.630;2022-08-03T23:29:25;15.10;;;8.87;;
17937;SDS011;16051;53.024;8.630;2022-08-03T23:33:30;11.67;;;8.57;;
17937;SDS011;16051;53.024;8.630;2022-08-03T23:37:34;10.30;;;7.77;;
17937;SDS011;16051;53.024;8.630;2022-08-03T23:41:52;13.40;;;9.87;;
17937;SDS011;16051;53.024;8.630;2022-08-03T23:45:57;14.77;;;9.90;;
17937;SDS011;16051;53.024;8.630;2022-08-03T23:50:01;10.60;;;7.47;;
17937;SDS011;16051;53.024;8.630;2022-08-03T23:54:05;11.37;;;7.77;;
17937;SDS011;16051;53.024;8.630;2022-08-03T23:58:26;7.93;;;6.30;;
